This is the latest recevied weather packets stored in our database for station/object EA3HRE-13. If no packets are shown the sender has not sent any weather packets the latest 1 day(s).
| Time | Temp. | Humidity | Pressure | Rain* | Wind** | Luminosity | Snow |
|---|---|---|---|---|---|---|---|
| 1778104603 | 14.44° C | 100% | 1003.6 hPa | 0 mm | - | - | - |
| 1778104003 | 14.44° C | 100% | 1003.7 hPa | 0 mm | - | - | - |
| 1778103373 | 14.44° C | 100% | 1003.5 hPa | 0 mm | - | - | - |
| 1778102773 | 15° C | 100% | 1003.4 hPa | 0 mm | - | - | - |
| 1778102173 | 15° C | 100% | 1003.4 hPa | 0 mm | - | - | - |
| 1778101573 | 15.56° C | 100% | 1003.2 hPa | 0 mm | - | - | - |
| 1778096682 | 16.67° C | 100% | 1002.3 hPa | 0 mm | - | - | - |
| 1778096082 | 17.22° C | 100% | 1002.1 hPa | 0 mm | - | - | - |
| 1778094852 | 17.22° C | 100% | 1001.9 hPa | 0 mm | - | - | - |
| 1778089991 | 22.78° C | 100% | 1009.2 hPa | 0 mm | - | - | - |
| 1778089361 | 20.56° C | 100% | 1001 hPa | 0 mm | - | - | - |
| 1778088761 | 21.67° C | 100% | 1000.8 hPa | 0 mm | - | - | - |
| 1778088161 | 21.67° C | 100% | 1000.9 hPa | 0 mm | - | - | - |
| 1778087561 | 21.67° C | 100% | 1000.8 hPa | 0 mm | - | - | - |
| 1778084530 | 22.22° C | 100% | 1000.6 hPa | 0 mm | - | - | - |
| 1778082700 | 19.44° C | 100% | 1000.6 hPa | 0 mm | - | - | - |
| 1778082100 | 22.78° C | 100% | - | 0 mm | - | - | - |
| 1778081470 | 22.78° C | 100% | 1000.7 hPa | 0 mm | - | - | - |
| 1778080870 | 22.78° C | 100% | 1000.7 hPa | 0 mm | - | - | - |
| 1778080270 | 22.78° C | 100% | 1000.8 hPa | 0 mm | - | - | - |
| 1778075439 | 22.22° C | 100% | 1001.6 hPa | 0 mm | - | - | - |
| 1778074809 | 20° C | 100% | - | 0 mm | - | - | - |
| 1778070578 | 21.67° C | 100% | 1002.2 hPa | 0 mm | - | - | - |
| 1778069978 | 21.11° C | 100% | 1002.3 hPa | 0 mm | - | - | - |
| 1778069378 | 21.11° C | 100% | 1002.5 hPa | 0 mm | - | - | - |
* Rain latest hour (hover to see other rain measurements)
** Current wind speed in m/s (hover to see current wind gust speed)